Denmark, New York
Current Conditions -  °F | °C
As of 7:08 PM on Tuesday 25 Nov 2014 (Local Time) from KGTB Reporting Station
Drizzle Drizzle  
Wind Chill: 25°   Ceiling: 1200
Heat Index: 36°   Visibility: 7mi
Dew Point: 32°   Wind: 18mph
Humidity: 87%   Direction: 270°W
Pressure: 30.02"   Gusts: 26mph
Location:  43.89°N, 75.56°W
Report Text: KGTB 260008Z AUTO 27016G23KT 7SM -DZ BKN012 OVC017 02/00 A3002 RMK AO2 UPB2359RAE2359
Loading
Personal Weather Stations






























Interactive Weather Map New forecast layout! Learn more

10-Day Weather Forecast

Advertisements
Track Severe Weather on mobile